createdAt,value
2019-02-12T00:00:57.152Z,1.63
2019-02-12T00:05:56.800Z,1.50
2019-02-12T00:10:56.418Z,1.73
2019-02-12T00:15:56.130Z,2.03
2019-02-12T00:20:55.750Z,1.73
2019-02-12T00:25:55.439Z,1.30
2019-02-12T00:30:55.067Z,1.40
2019-02-12T00:35:54.724Z,1.73
2019-02-12T00:40:54.327Z,1.87
2019-02-12T00:45:53.970Z,1.50
2019-02-12T00:50:53.870Z,1.33
2019-02-12T00:55:53.507Z,0.73
2019-02-12T01:00:53.203Z,1.00
2019-02-12T01:05:52.850Z,1.17
2019-02-12T01:10:52.492Z,1.20
2019-02-12T01:15:52.130Z,1.27
2019-02-12T01:20:52.019Z,1.77
2019-02-12T01:25:51.658Z,1.37
2019-02-12T01:30:51.300Z,1.30
2019-02-12T01:35:51.194Z,0.93
2019-02-12T01:40:50.854Z,0.60
2019-02-12T01:45:50.553Z,1.00
2019-02-12T01:50:50.206Z,1.00
2019-02-12T01:55:49.843Z,2.13
2019-02-12T02:00:49.515Z,1.23
2019-02-12T02:05:49.167Z,0.60
2019-02-12T02:10:48.779Z,1.57
2019-02-12T02:15:48.664Z,0.67
2019-02-12T02:20:48.551Z,1.23
2019-02-12T02:25:48.444Z,0.90
2019-02-12T02:30:48.159Z,0.80
2019-02-12T02:35:47.772Z,1.27
2019-02-12T02:40:47.499Z,1.47
2019-02-12T02:45:47.229Z,0.80
2019-02-12T02:50:46.890Z,1.50
2019-02-12T02:55:46.534Z,1.57
2019-02-12T03:00:46.420Z,1.00
2019-02-12T03:05:46.135Z,1.30
2019-02-12T03:10:46.044Z,1.10
2019-02-12T03:15:45.687Z,1.30
2019-02-12T03:20:45.607Z,1.30
2019-02-12T03:25:45.235Z,1.30
2019-02-12T03:30:44.881Z,1.50
2019-02-12T03:35:44.529Z,1.40
2019-02-12T03:40:44.155Z,0.90
2019-02-12T03:45:43.831Z,1.60
2019-02-12T03:50:43.492Z,1.13
2019-02-12T03:55:43.153Z,1.23
2019-02-12T04:00:42.989Z,1.90
2019-02-12T04:05:43.618Z,1.87
2019-02-12T04:10:43.498Z,1.30
2019-02-12T04:15:43.223Z,1.07
2019-02-12T04:20:42.867Z,1.63
2019-02-12T04:25:42.498Z,0.70
2019-02-12T04:30:42.138Z,1.10
2019-02-12T04:35:41.796Z,1.83
2019-02-12T04:40:41.485Z,1.20
2019-02-12T04:45:41.175Z,1.00
2019-02-12T04:50:40.805Z,1.20
2019-02-12T04:55:40.451Z,0.73
2019-02-12T05:00:40.091Z,2.23
2019-02-12T05:05:39.806Z,1.20
2019-02-12T05:10:42.855Z,0.70
2019-02-12T05:15:42.496Z,0.70
2019-02-12T05:20:42.131Z,1.30
2019-02-12T05:25:41.762Z,0.90
2019-02-12T05:30:41.411Z,0.93
2019-02-12T05:35:41.051Z,0.80
2019-02-12T05:40:40.691Z,0.77
2019-02-12T05:45:40.343Z,1.00
2019-02-12T05:50:40.000Z,1.00
2019-02-12T05:55:39.723Z,1.67
2019-02-12T06:00:39.380Z,2.00
2019-02-12T06:05:39.273Z,2.00
2019-02-12T06:10:38.930Z,0.90
2019-02-12T06:15:38.570Z,1.77
2019-02-12T06:20:38.215Z,1.03
2019-02-12T06:25:37.855Z,3.83
2019-02-12T06:30:37.527Z,1.80
2019-02-12T06:35:37.172Z,1.10
2019-02-12T06:40:36.827Z,1.20
2019-02-12T06:45:36.442Z,1.30
2019-02-12T06:50:36.338Z,1.20
2019-02-12T06:55:36.212Z,0.70
2019-02-12T07:00:35.939Z,1.53
2019-02-12T07:05:35.572Z,0.93
2019-02-12T07:10:37.564Z,1.50
2019-02-12T07:15:54.303Z,1.00
2019-02-12T07:21:09.991Z,2.00
2019-02-12T07:26:44.672Z,2.70
2019-02-12T07:32:21.367Z,0.90
2019-02-12T07:38:17.123Z,1.03
2019-02-12T07:44:03.227Z,1.03
2019-02-12T07:49:38.504Z,1.73
2019-02-12T07:55:12.600Z,1.90
2019-02-12T08:00:27.099Z,1.77
2019-02-12T08:05:35.363Z,1.70
2019-02-12T08:10:58.258Z,1.40
2019-02-12T08:16:20.226Z,0.97
2019-02-12T08:21:51.697Z,2.30
2019-02-12T08:27:28.475Z,1.40
2019-02-12T08:32:40.838Z,2.77
2019-02-12T08:38:16.347Z,1.40
2019-02-12T08:43:48.580Z,1.70
2019-02-12T08:49:12.155Z,1.83
2019-02-12T08:54:43.255Z,1.20
2019-02-12T09:00:19.896Z,1.53
2019-02-12T09:06:16.091Z,1.50
2019-02-12T09:11:37.492Z,1.00
2019-02-12T09:17:03.488Z,1.93
2019-02-12T09:22:38.672Z,2.07
2019-02-12T09:28:33.707Z,4.80
2019-02-12T09:34:13.324Z,2.03
2019-02-12T09:39:23.935Z,2.20
2019-02-12T09:44:54.374Z,2.50
2019-02-12T09:50:21.115Z,1.50
2019-02-12T09:55:32.810Z,2.20
2019-02-12T10:01:12.186Z,2.33
2019-02-12T10:06:42.576Z,2.17
2019-02-12T10:12:44.485Z,1.30
2019-02-12T10:18:06.354Z,3.70
2019-02-12T10:23:53.912Z,2.23
2019-02-12T10:29:43.836Z,1.20
2019-02-12T10:34:43.535Z,2.30
2019-02-12T10:39:43.192Z,2.50
2019-02-12T10:44:42.840Z,2.13
2019-02-12T10:49:42.612Z,1.97
2019-02-12T10:54:42.267Z,2.33
2019-02-12T10:59:41.931Z,2.40
2019-02-12T11:04:41.743Z,2.90
2019-02-12T11:09:41.415Z,2.80
2019-02-12T11:14:41.093Z,3.10
2019-02-12T11:19:40.748Z,2.27
2019-02-12T11:24:40.423Z,2.60
2019-02-12T11:29:40.091Z,3.07
2019-02-12T11:34:39.839Z,2.90
2019-02-12T11:39:39.483Z,1.53
2019-02-12T11:44:39.099Z,2.00
2019-02-12T11:49:38.755Z,2.20
2019-02-12T11:54:43.605Z,2.10
2019-02-12T11:59:40.091Z,1.63
2019-02-12T12:04:39.747Z,1.60
2019-02-12T12:09:39.938Z,1.40
2019-02-12T12:14:39.646Z,2.60
2019-02-12T12:19:39.567Z,1.63
2019-02-12T12:24:39.195Z,1.90
2019-02-12T12:29:38.847Z,2.00
2019-02-12T12:34:38.491Z,1.50
2019-02-12T12:39:39.336Z,1.60
2019-02-12T12:44:38.949Z,1.10
2019-02-12T12:49:38.858Z,1.47
2019-02-12T12:54:38.510Z,1.73
2019-02-12T12:59:38.150Z,1.40
2019-02-12T13:04:38.023Z,1.43
2019-02-12T13:09:38.649Z,1.30
2019-02-12T13:14:38.343Z,1.40
2019-02-12T13:19:37.978Z,1.23
2019-02-12T13:24:37.610Z,1.27
2019-02-12T13:29:37.411Z,1.03
2019-02-12T13:34:37.059Z,1.27
2019-02-12T13:39:36.699Z,1.30
2019-02-12T13:44:36.836Z,0.80
2019-02-12T13:49:36.514Z,2.37
2019-02-12T13:54:36.158Z,1.30
2019-02-12T13:59:35.803Z,1.40
2019-02-12T14:04:35.919Z,0.90
2019-02-12T14:09:35.560Z,1.63
2019-02-12T14:14:35.241Z,0.90
2019-02-12T14:19:34.914Z,0.90
2019-02-12T14:24:34.667Z,1.10
2019-02-12T14:29:34.303Z,1.90
2019-02-12T14:34:33.957Z,1.43
2019-02-12T14:39:33.591Z,1.23
2019-02-12T14:44:33.530Z,1.10
2019-02-12T14:49:33.657Z,1.27
2019-02-12T14:54:33.357Z,1.27
2019-02-12T14:59:33.071Z,1.13
2019-02-12T15:04:32.987Z,1.43
2019-02-12T15:09:32.619Z,1.30
2019-02-12T15:14:32.427Z,1.70
2019-02-12T15:19:32.079Z,1.17
2019-02-12T15:24:31.758Z,2.20
2019-02-12T15:29:31.415Z,1.87
2019-02-12T15:34:31.064Z,1.70
2019-02-12T15:39:30.798Z,2.40
2019-02-12T15:44:30.598Z,2.10
2019-02-12T15:49:30.259Z,3.13
2019-02-12T15:54:29.887Z,2.50
2019-02-12T15:59:31.348Z,2.70
2019-02-12T16:04:30.851Z,1.93
2019-02-12T16:09:35.425Z,1.90
2019-02-12T16:14:32.062Z,1.47
2019-02-12T16:19:32.052Z,1.70
2019-02-12T16:24:31.831Z,1.40
2019-02-12T16:29:31.494Z,2.20
2019-02-12T16:34:31.138Z,2.73
2019-02-12T16:39:30.860Z,1.30
2019-02-12T16:44:30.520Z,1.73
2019-02-12T16:49:30.788Z,1.80
2019-02-12T16:54:30.689Z,2.47
2019-02-12T16:59:30.419Z,2.50
2019-02-12T17:04:32.143Z,3.23
2019-02-12T17:09:31.807Z,3.60
2019-02-12T17:14:31.440Z,2.60
2019-02-12T17:19:31.310Z,2.40
2019-02-12T17:24:30.970Z,2.83
2019-02-12T17:29:32.727Z,2.50
2019-02-12T17:34:32.440Z,2.40
2019-02-12T17:39:32.121Z,2.20
2019-02-12T17:44:31.767Z,2.50
2019-02-12T17:49:31.981Z,2.43
2019-02-12T17:54:32.613Z,1.73
2019-02-12T17:59:32.503Z,2.77
2019-02-12T18:04:32.430Z,2.60
2019-02-12T18:09:32.259Z,3.37
2019-02-12T18:14:31.913Z,3.10
2019-02-12T18:19:31.568Z,3.60
2019-02-12T18:24:31.546Z,3.93
2019-02-12T18:29:31.442Z,4.40
2019-02-12T18:34:31.354Z,4.50
2019-02-12T18:39:31.249Z,6.53
2019-02-12T18:44:31.213Z,4.60
2019-02-12T18:49:30.982Z,4.77
2019-02-12T18:54:30.635Z,4.70
2019-02-12T18:59:30.347Z,4.77
2019-02-12T19:04:30.062Z,4.90
2019-02-12T19:09:31.222Z,5.00
2019-02-12T19:14:34.087Z,4.37
2019-02-12T19:19:33.759Z,6.53
2019-02-12T19:24:33.414Z,5.67
2019-02-12T19:29:33.059Z,6.20
2019-02-12T19:34:32.716Z,7.03
2019-02-12T19:39:32.402Z,6.50
2019-02-12T19:44:34.318Z,5.40
2019-02-12T19:49:33.973Z,6.90
2019-02-12T19:54:33.763Z,7.40
2019-02-12T19:59:33.504Z,7.03
2019-02-12T20:04:33.146Z,7.07
2019-02-12T20:09:33.040Z,9.00
2019-02-12T20:14:39.391Z,7.67
2019-02-12T20:19:34.268Z,7.73
2019-02-12T20:24:33.944Z,8.30
2019-02-12T20:29:33.831Z,8.80
2019-02-12T20:34:33.491Z,9.70
2019-02-12T20:39:33.139Z,9.93
2019-02-12T20:44:32.785Z,10.10
2019-02-12T20:49:35.408Z,10.70
2019-02-12T20:54:42.601Z,10.63
2019-02-12T20:59:42.560Z,8.97
2019-02-12T21:04:42.499Z,12.23
2019-02-12T21:09:42.204Z,11.27
2019-02-12T21:14:41.919Z,10.80
2019-02-12T21:19:41.656Z,12.30
2019-02-12T21:24:41.597Z,11.60
2019-02-12T21:29:41.262Z,12.20
2019-02-12T21:34:40.939Z,11.27
2019-02-12T21:39:44.046Z,12.17
2019-02-12T21:44:43.789Z,12.80
2019-02-12T21:49:43.440Z,13.60
2019-02-12T21:54:43.081Z,12.50
2019-02-12T21:59:42.766Z,14.60
2019-02-12T22:04:42.519Z,13.50
2019-02-12T22:09:42.171Z,10.10
2019-02-12T22:14:42.349Z,13.27
2019-02-12T22:19:42.323Z,11.43
2019-02-12T22:24:41.958Z,16.93
2019-02-12T22:30:01.121Z,14.27
2019-02-12T22:35:14.550Z,16.10
2019-02-12T22:40:26.299Z,14.10
2019-02-12T22:45:38.031Z,13.60
2019-02-12T22:50:50.295Z,10.57
2019-02-12T22:56:01.809Z,13.63
2019-02-12T23:01:12.159Z,15.37
2019-02-12T23:06:32.127Z,15.90
2019-02-12T23:11:45.919Z,18.83
2019-02-12T23:16:58.078Z,12.20
2019-02-12T23:22:09.431Z,9.77
2019-02-12T23:27:20.771Z,11.50
2019-02-12T23:32:32.634Z,18.40
2019-02-12T23:37:44.634Z,11.73
2019-02-12T23:42:56.519Z,16.30
2019-02-12T23:48:08.427Z,15.27
2019-02-12T23:53:20.487Z,14.30
2019-02-12T23:58:39.028Z,10.63
